createdAt,value
2022-10-05T00:01:35.039Z,14.70
2022-10-05T00:05:36.157Z,14.70
2022-10-05T00:09:37.195Z,14.40
2022-10-05T00:13:39.677Z,14.80
2022-10-05T00:17:41.568Z,14.80
2022-10-05T00:21:42.530Z,14.70
2022-10-05T00:25:43.704Z,15.00
2022-10-05T00:29:45.917Z,14.80
2022-10-05T00:33:48.413Z,14.30
2022-10-05T00:37:54.894Z,14.20
2022-10-05T00:42:05.584Z,14.50
2022-10-05T00:46:16.394Z,14.60
2022-10-05T00:50:49.289Z,14.70
2022-10-05T00:55:06.055Z,14.70
2022-10-05T00:59:19.767Z,15.20
2022-10-05T01:03:41.095Z,15.30
2022-10-05T01:07:54.779Z,15.20
2022-10-05T01:12:05.402Z,15.20
2022-10-05T01:16:19.251Z,15.00
2022-10-05T01:20:26.688Z,15.00
2022-10-05T01:24:47.987Z,15.00
2022-10-05T01:28:55.478Z,14.60
2022-10-05T01:33:00.193Z,14.00
2022-10-05T01:37:14.095Z,14.40
2022-10-05T01:41:33.932Z,14.60
2022-10-05T01:45:44.651Z,14.60
2022-10-05T01:54:23.802Z,14.40
2022-10-05T01:58:46.280Z,14.30
2022-10-05T02:03:05.834Z,14.10
2022-10-05T02:07:10.690Z,13.90
2022-10-05T02:11:14.058Z,13.70
2022-10-05T02:15:18.791Z,13.50
2022-10-05T02:19:32.443Z,13.50
2022-10-05T02:23:37.188Z,13.70
2022-10-05T02:27:49.518Z,13.70
2022-10-05T02:31:54.582Z,13.00
2022-10-05T02:36:01.656Z,13.50
2022-10-05T02:40:34.888Z,13.30
2022-10-05T02:44:39.671Z,13.40
2022-10-05T02:49:11.124Z,13.10
2022-10-05T02:53:25.308Z,13.10
2022-10-05T02:57:46.737Z,12.80
2022-10-05T03:01:53.938Z,14.20
2022-10-05T03:06:01.835Z,14.50
2022-10-05T03:10:33.457Z,14.90
2022-10-05T03:14:49.559Z,14.50
2022-10-05T03:19:10.506Z,14.10
2022-10-05T03:23:34.918Z,14.00
2022-10-05T03:27:42.407Z,12.80
2022-10-05T03:31:47.176Z,13.60
2022-10-05T03:35:58.083Z,14.60
2022-10-05T03:40:19.582Z,14.60
2022-10-05T03:44:29.973Z,14.60
2022-10-05T03:48:40.126Z,14.50
2022-10-05T03:52:44.956Z,14.20
2022-10-05T03:57:00.771Z,14.00
2022-10-05T04:01:05.513Z,14.40
2022-10-05T04:05:22.075Z,14.40
2022-10-05T04:09:38.874Z,14.30
2022-10-05T04:13:52.290Z,14.30
2022-10-05T04:17:59.886Z,14.20
2022-10-05T04:22:19.665Z,14.10
2022-10-05T04:26:27.167Z,13.80
2022-10-05T04:30:31.112Z,13.60
2022-10-05T04:35:10.830Z,13.10
2022-10-05T04:39:33.685Z,12.50
2022-10-05T04:43:38.526Z,13.50
2022-10-05T04:48:03.010Z,13.40
2022-10-05T04:52:16.641Z,13.80
2022-10-05T04:56:21.418Z,13.10
2022-10-05T05:00:25.166Z,13.40
2022-10-05T05:04:52.035Z,13.40
2022-10-05T05:09:20.277Z,12.90
2022-10-05T05:13:30.855Z,13.30
2022-10-05T05:17:44.447Z,13.30
2022-10-05T05:21:54.515Z,13.50
2022-10-05T05:26:21.612Z,13.40
2022-10-05T05:30:25.949Z,13.10
2022-10-05T05:34:47.068Z,13.00
2022-10-05T05:39:07.075Z,12.80
2022-10-05T05:43:23.788Z,12.60
2022-10-05T05:47:39.533Z,12.90
2022-10-05T05:51:44.403Z,12.90
2022-10-05T05:55:49.248Z,12.80
2022-10-05T06:00:05.792Z,13.00
2022-10-05T06:04:25.880Z,13.00
2022-10-05T06:08:39.409Z,13.20
2022-10-05T06:12:46.926Z,13.20
2022-10-05T06:16:54.353Z,13.60
2022-10-05T06:20:59.269Z,13.20
2022-10-05T06:25:16.208Z,14.30
2022-10-05T06:29:20.944Z,14.60
2022-10-05T06:33:44.952Z,14.50
2022-10-05T06:38:17.067Z,14.20
2022-10-05T06:42:33.655Z,15.30
2022-10-05T06:46:54.973Z,14.70
2022-10-05T06:51:05.958Z,15.20
2022-10-05T06:55:31.247Z,16.00
2022-10-05T06:59:56.303Z,16.40
2022-10-05T07:04:10.206Z,17.00
2022-10-05T07:08:20.940Z,17.10
2022-10-05T07:12:46.807Z,16.40
2022-10-05T07:17:06.553Z,16.80
2022-10-05T07:21:40.103Z,17.30
2022-10-05T07:25:50.776Z,17.10
2022-10-05T07:30:07.323Z,17.20
2022-10-05T07:34:37.517Z,17.00
2022-10-05T07:39:08.116Z,17.70
2022-10-05T07:43:24.743Z,17.90
2022-10-05T07:47:47.568Z,17.60
2022-10-05T07:51:52.118Z,17.70
2022-10-05T07:56:06.245Z,17.20
2022-10-05T08:00:17.145Z,16.70
2022-10-05T08:04:41.922Z,16.90
2022-10-05T08:09:14.232Z,16.60
2022-10-05T08:13:30.947Z,16.00
2022-10-05T08:17:56.950Z,16.10
2022-10-05T08:22:01.788Z,16.40
2022-10-05T08:26:26.213Z,15.50
2022-10-05T08:30:29.740Z,15.50
2022-10-05T08:34:37.464Z,15.50
2022-10-05T08:38:39.439Z,15.80
2022-10-05T08:42:53.236Z,15.30
2022-10-05T08:47:18.156Z,15.40
2022-10-05T08:51:25.610Z,15.20
2022-10-05T08:55:51.586Z,15.70
2022-10-05T09:00:05.621Z,16.70
2022-10-05T09:04:28.890Z,17.10
2022-10-05T09:08:39.575Z,17.20
2022-10-05T09:12:53.670Z,16.30
2022-10-05T09:17:13.290Z,16.50
2022-10-05T09:21:41.917Z,17.60
2022-10-05T09:25:55.532Z,17.30
2022-10-05T09:30:17.936Z,17.90
2022-10-05T09:34:30.005Z,17.10
2022-10-05T09:38:37.833Z,17.20
2022-10-05T09:43:02.154Z,17.20
2022-10-05T09:47:26.407Z,16.50
2022-10-05T09:52:01.624Z,16.70
2022-10-05T10:00:59.574Z,17.50
2022-10-05T10:05:04.582Z,18.90
2022-10-05T10:09:28.843Z,18.90
2022-10-05T10:13:53.119Z,17.50
2022-10-05T10:18:18.851Z,17.90
2022-10-05T10:22:43.083Z,18.90
2022-10-05T10:27:05.307Z,18.90
2022-10-05T10:31:45.295Z,18.10
2022-10-05T10:36:14.822Z,18.60
2022-10-05T10:40:22.784Z,18.20
2022-10-05T10:44:38.851Z,18.40
2022-10-05T10:49:01.600Z,18.90
2022-10-05T10:53:15.470Z,18.60
2022-10-05T10:57:32.420Z,19.00
2022-10-05T11:01:46.547Z,18.60
2022-10-05T11:05:54.707Z,18.10
2022-10-05T11:10:28.380Z,18.50
2022-10-05T11:14:51.751Z,18.60
2022-10-05T11:19:08.560Z,18.60
2022-10-05T11:23:22.252Z,19.40
2022-10-05T11:27:44.979Z,19.50
2022-10-05T11:31:54.841Z,19.50
2022-10-05T11:36:11.572Z,19.70
2022-10-05T11:40:22.255Z,19.30
2022-10-05T11:45:00.354Z,19.60
2022-10-05T11:49:29.572Z,20.00
2022-10-05T11:53:46.233Z,20.20
2022-10-05T11:58:01.036Z,19.70
2022-10-05T12:02:27.180Z,19.30
2022-10-05T12:06:50.965Z,19.80
2022-10-05T12:11:21.854Z,19.60
2022-10-05T12:15:26.739Z,20.10
2022-10-05T12:19:35.930Z,20.00
2022-10-05T12:23:47.022Z,20.00
2022-10-05T12:27:53.375Z,20.50
2022-10-05T12:32:04.654Z,20.70
2022-10-05T12:36:09.442Z,20.70
2022-10-05T12:40:19.969Z,21.10
2022-10-05T12:44:30.916Z,21.80
2022-10-05T12:49:02.891Z,21.60
2022-10-05T12:53:22.914Z,21.30
2022-10-05T12:57:27.745Z,21.80
2022-10-05T13:01:34.839Z,22.10
2022-10-05T13:05:48.274Z,23.20
2022-10-05T13:09:59.251Z,23.40
2022-10-05T13:14:32.828Z,23.90
2022-10-05T13:18:48.505Z,24.70
2022-10-05T13:23:11.551Z,23.90
2022-10-05T13:27:27.058Z,23.80
2022-10-05T13:31:34.906Z,22.80
2022-10-05T13:35:42.783Z,23.10
2022-10-05T13:39:56.756Z,23.70
2022-10-05T13:44:01.647Z,23.40
2022-10-05T13:48:15.719Z,23.30
2022-10-05T13:52:25.513Z,23.60
2022-10-05T13:56:36.224Z,22.30
2022-10-05T14:00:50.147Z,23.10
2022-10-05T14:04:55.093Z,22.20
2022-10-05T14:08:58.167Z,22.20
2022-10-05T14:13:01.759Z,21.60
2022-10-05T14:17:04.845Z,21.50
2022-10-05T14:21:12.794Z,21.20
2022-10-05T14:25:19.058Z,21.30
2022-10-05T14:29:26.012Z,20.70
2022-10-05T14:33:30.834Z,20.90
2022-10-05T14:37:34.488Z,20.70
2022-10-05T14:41:37.252Z,20.90
2022-10-05T14:45:55.042Z,20.50
2022-10-05T14:50:13.512Z,20.50
2022-10-05T14:54:33.598Z,20.20
2022-10-05T14:58:46.864Z,20.20
2022-10-05T15:02:54.833Z,20.00
2022-10-05T15:07:17.802Z,21.00
2022-10-05T15:11:34.642Z,21.10
2022-10-05T15:16:00.607Z,21.20
2022-10-05T15:20:15.495Z,21.40
2022-10-05T15:24:24.668Z,21.20
2022-10-05T15:28:32.415Z,21.00
2022-10-05T15:32:49.235Z,21.80
2022-10-05T15:36:54.437Z,21.20
2022-10-05T15:41:17.245Z,21.50
2022-10-05T15:45:31.535Z,21.50
2022-10-05T15:49:55.171Z,21.20
2022-10-05T15:54:18.270Z,21.00
2022-10-05T15:58:32.079Z,20.80
2022-10-05T16:02:43.099Z,20.10
2022-10-05T16:07:16.492Z,20.10
2022-10-05T16:11:30.319Z,20.30
2022-10-05T16:15:45.915Z,20.10
2022-10-05T16:20:16.371Z,20.20
2022-10-05T16:24:39.071Z,20.70
2022-10-05T16:29:12.432Z,21.00
2022-10-05T16:33:29.391Z,20.40
2022-10-05T16:37:51.524Z,20.10
2022-10-05T16:42:14.064Z,19.70
2022-10-05T16:46:28.283Z,19.80
2022-10-05T16:50:54.693Z,19.70
2022-10-05T16:54:59.268Z,19.70
2022-10-05T16:59:30.816Z,19.90
2022-10-05T17:03:44.505Z,19.90
2022-10-05T17:07:58.547Z,19.90
2022-10-05T17:12:09.238Z,20.10
2022-10-05T17:16:23.235Z,19.90
2022-10-05T17:20:37.940Z,19.90
2022-10-05T17:25:13.907Z,19.90
2022-10-05T17:29:24.923Z,19.80
2022-10-05T17:33:29.646Z,20.20
2022-10-05T17:37:36.765Z,20.00
2022-10-05T17:41:38.647Z,19.90
2022-10-05T17:45:46.615Z,20.00
2022-10-05T17:50:19.032Z,19.90
2022-10-05T17:54:45.022Z,19.70
2022-10-05T17:58:53.815Z,19.80
2022-10-05T18:02:57.507Z,20.10
2022-10-05T18:07:04.941Z,20.20
2022-10-05T18:11:09.806Z,20.70
2022-10-05T18:15:19.330Z,20.50
2022-10-05T18:19:23.795Z,20.00
2022-10-05T18:23:28.154Z,20.40
2022-10-05T18:27:36.134Z,20.30
2022-10-05T18:31:55.799Z,20.60
2022-10-05T18:36:16.327Z,20.70
2022-10-05T18:40:34.514Z,20.70
2022-10-05T18:44:51.284Z,20.50
2022-10-05T18:49:26.223Z,20.10
2022-10-05T18:53:40.184Z,19.70
2022-10-05T18:57:53.777Z,19.50
2022-10-05T19:02:24.588Z,19.50
2022-10-05T19:06:32.455Z,20.00
2022-10-05T19:10:45.132Z,20.30
2022-10-05T19:15:06.438Z,20.40
2022-10-05T19:19:36.935Z,19.80
2022-10-05T19:23:58.510Z,20.00
2022-10-05T19:28:25.469Z,19.90
2022-10-05T19:32:30.756Z,20.10
2022-10-05T19:36:45.155Z,20.30
2022-10-05T19:41:04.826Z,20.00
2022-10-05T19:45:12.834Z,20.10
2022-10-05T19:49:17.790Z,19.90
2022-10-05T19:53:28.502Z,19.90
2022-10-05T19:57:30.843Z,19.70
2022-10-05T20:01:37.521Z,19.80
2022-10-05T20:05:39.900Z,19.80
2022-10-05T20:09:59.282Z,19.30
2022-10-05T20:14:06.580Z,19.70
2022-10-05T20:18:57.647Z,19.40
2022-10-05T20:23:20.054Z,19.10
2022-10-05T20:27:37.096Z,19.50
2022-10-05T20:31:38.268Z,19.20
2022-10-05T20:35:39.172Z,19.10
2022-10-05T20:39:41.044Z,19.20
2022-10-05T20:43:42.681Z,19.50
2022-10-05T20:47:45.710Z,19.40
2022-10-05T20:51:46.768Z,19.50
2022-10-05T20:55:47.777Z,19.30
2022-10-05T20:59:49.165Z,19.50
2022-10-05T21:03:50.165Z,19.90
2022-10-05T21:07:51.247Z,19.40
2022-10-05T21:11:53.971Z,19.90
2022-10-05T21:15:55.872Z,19.90
2022-10-05T21:19:57.045Z,20.00
2022-10-05T21:23:59.892Z,19.40
2022-10-05T21:28:01.354Z,19.50
2022-10-05T21:32:03.190Z,19.00
2022-10-05T21:36:04.562Z,19.80
2022-10-05T21:40:06.010Z,19.60
2022-10-05T21:44:07.081Z,19.40
2022-10-05T21:48:08.431Z,19.70
2022-10-05T21:52:11.434Z,18.30
2022-10-05T21:56:15.017Z,19.10
2022-10-05T22:00:16.255Z,18.90
2022-10-05T22:04:17.626Z,19.10
2022-10-05T22:08:25.037Z,19.60
2022-10-05T22:12:26.144Z,19.00
2022-10-05T22:16:28.618Z,18.90
2022-10-05T22:20:31.244Z,18.80
2022-10-05T22:24:32.250Z,18.70
2022-10-05T22:28:33.908Z,19.40
2022-10-05T22:32:35.145Z,19.30
2022-10-05T22:36:37.018Z,19.50
2022-10-05T22:40:38.081Z,19.30
2022-10-05T22:44:39.656Z,19.60
2022-10-05T22:48:40.545Z,19.50
2022-10-05T22:52:41.936Z,19.50
2022-10-05T22:56:43.294Z,18.90
2022-10-05T23:00:58.115Z,19.30
2022-10-05T23:04:48.221Z,19.60
2022-10-05T23:08:49.366Z,19.60
2022-10-05T23:13:00.501Z,19.40
2022-10-05T23:16:59.227Z,18.80
2022-10-05T23:21:00.573Z,18.90
2022-10-05T23:25:01.590Z,18.60
2022-10-05T23:29:02.952Z,19.00
2022-10-05T23:33:03.834Z,18.40
2022-10-05T23:37:05.855Z,18.90
2022-10-05T23:41:08.106Z,18.80
2022-10-05T23:45:10.767Z,19.00
2022-10-05T23:49:13.795Z,19.10
2022-10-05T23:53:15.857Z,19.10
2022-10-05T23:57:18.125Z,18.70
